Time;durP1;ratioP1;P1;durP2;ratioP2;P2;SDS_P1;SDS_P2;PMS_P1;PMS_P2;Temp;Humidity;BMP_temperature;BMP_pressure;BME280_temperature;BME280_humidity;BME280_pressure;Samples;Min_cycle;Max_cycle;Signal;HPM_P1;HPM_P2
2022/06/23 00:00:17;;;;;;;6.13;3.90;;;;;;;22.80;40.83;101068.28;5032873;28;20124;-67
2022/06/23 00:02:48;;;;;;;6.13;4.13;;;;;;;22.77;40.46;101057.66;5033240;28;20044;-67
2022/06/23 00:05:18;;;;;;;5.43;4.55;;;;;;;22.76;40.57;101055.97;5033503;28;20056;-67
2022/06/23 00:07:51;;;;;;;5.53;4.65;;;;;;;22.74;41.18;101049.81;5032955;28;20115;-67
2022/06/23 00:10:47;;;;;;;7.10;5.18;;;;;;;22.70;41.27;101051.22;5033071;28;20136;-67
2022/06/23 00:13:21;;;;;;;9.68;5.30;;;;;;;22.68;41.46;101056.03;5029968;28;20053;-67
2022/06/23 00:15:50;;;;;;;7.82;5.03;;;;;;;22.64;41.54;101046.47;5032870;28;20400;-67
2022/06/23 00:18:26;;;;;;;7.88;4.60;;;;;;;22.60;41.77;101039.66;5033153;28;20135;-68
2022/06/23 00:20:58;;;;;;;10.90;5.60;;;;;;;22.57;41.60;101048.25;5032908;28;20040;-66
2022/06/23 00:23:38;;;;;;;7.53;4.95;;;;;;;22.52;42.33;101056.16;5032843;28;20045;-67
2022/06/23 00:26:20;;;;;;;7.28;4.95;;;;;;;22.48;42.42;101044.72;5032826;28;20135;-66
2022/06/23 00:28:56;;;;;;;10.25;5.35;;;;;;;22.45;42.50;101046.97;5035205;28;20561;-67
2022/06/23 00:31:34;;;;;;;10.77;5.13;;;;;;;22.40;42.33;101042.03;5032903;28;20038;-67
2022/06/23 00:34:15;;;;;;;7.07;4.63;;;;;;;22.37;42.59;101044.28;5031744;28;20446;-67
2022/06/23 00:36:51;;;;;;;10.95;5.80;;;;;;;22.37;42.87;101049.75;5033340;28;20052;-68
2022/06/23 00:39:40;;;;;;;12.10;6.00;;;;;;;22.34;43.14;101042.75;5031330;28;20045;-67
2022/06/23 00:42:23;;;;;;;9.65;5.57;;;;;;;22.31;43.37;101037.66;5032005;28;20052;-68
2022/06/23 00:44:58;;;;;;;8.40;6.07;;;;;;;22.27;43.18;101038.16;5030503;28;20037;-68
2022/06/23 00:47:35;;;;;;;8.77;5.65;;;;;;;22.25;43.25;101043.81;5032534;28;20042;-68
2022/06/23 00:50:34;;;;;;;10.00;6.05;;;;;;;22.20;44.04;101038.88;5032563;28;20037;-67
2022/06/23 00:53:10;;;;;;;8.45;5.82;;;;;;;22.18;43.68;101051.88;5026595;28;20140;-67
2022/06/23 00:55:57;;;;;;;7.45;5.80;;;;;;;22.15;43.95;101051.38;5032032;28;20038;-67
2022/06/23 00:58:32;;;;;;;9.35;6.00;;;;;;;22.12;44.10;101047.13;5031654;28;20061;-67
2022/06/23 01:01:03;;;;;;;;;;;;;;;22.09;43.89;101047.47;5031448;28;20033;-67
2022/06/23 01:03:41;;;;;;;10.68;6.15;;;;;;;22.13;43.75;101042.50;5030195;28;20395;-68
2022/06/23 01:06:13;;;;;;;8.73;6.03;;;;;;;22.08;44.47;101040.31;5032186;28;20029;-68
2022/06/23 01:08:48;;;;;;;10.48;6.63;;;;;;;22.07;44.42;101041.34;5033525;28;20096;-68
2022/06/23 01:11:23;;;;;;;9.88;7.10;;;;;;;22.03;44.88;101036.41;5032824;28;20064;-68
2022/06/23 01:14:22;;;;;;;8.95;6.60;;;;;;;21.99;45.01;101041.34;5033354;28;20052;-68
2022/06/23 01:17:01;;;;;;;12.90;7.20;;;;;;;21.99;45.04;101035.03;5033045;28;20103;-68
2022/06/23 01:19:34;;;;;;;10.80;7.03;;;;;;;21.95;44.87;101034.53;5034327;28;20095;-68
2022/06/23 01:22:04;;;;;;;7.78;6.68;;;;;;;21.92;45.45;101032.16;5033669;28;20120;-68
2022/06/23 01:24:46;;;;;;;11.98;7.00;;;;;;;21.89;45.31;101027.91;5034410;28;20037;-68
2022/06/23 01:27:27;;;;;;;11.55;7.30;;;;;;;21.85;45.70;101023.81;5032979;28;20037;-68
2022/06/23 01:30:04;;;;;;;12.75;7.47;;;;;;;21.82;45.36;101024.16;5032696;28;20110;-68
2022/06/23 01:32:43;;;;;;;10.32;7.00;;;;;;;21.79;45.42;101023.69;5032623;28;20124;-68
2022/06/23 01:35:24;;;;;;;8.98;6.93;;;;;;;21.76;45.84;101015.81;5032241;28;20091;-68
2022/06/23 01:37:57;;;;;;;7.97;6.28;;;;;;;21.74;45.93;101016.00;5032092;28;20037;-68
2022/06/23 01:40:33;;;;;;;10.63;7.40;;;;;;;21.73;45.72;101021.66;5033052;28;20033;-68
2022/06/23 01:43:13;;;;;;;11.88;7.32;;;;;;;21.68;46.32;101024.91;5030489;28;20049;-68
2022/06/23 01:45:52;;;;;;;11.10;6.82;;;;;;;21.65;46.17;101025.28;5032144;28;20395;-68
2022/06/23 01:48:53;;;;;;;10.18;6.38;;;;;;;21.64;46.17;101026.31;5031806;28;20049;-68
2022/06/23 01:51:22;;;;;;;10.35;7.43;;;;;;;21.63;46.00;101023.75;5032893;28;20037;-68
2022/06/23 01:53:51;;;;;;;12.43;7.50;;;;;;;21.60;46.06;101019.47;5031475;28;20061;-68
2022/06/23 01:56:39;;;;;;;15.52;8.25;;;;;;;21.58;46.45;101018.81;5031756;28;20037;-69
2022/06/23 01:59:16;;;;;;;12.98;7.55;;;;;;;21.59;46.75;101022.41;5051648;28;20048;-68
2022/06/23 02:01:50;;;;;;;8.68;6.40;;;;;;;21.59;46.77;101019.66;5051277;28;20041;-68
2022/06/23 02:04:32;;;;;;;9.52;6.93;;;;;;;21.60;46.62;101021.38;5051591;28;20049;-68
2022/06/23 02:07:07;;;;;;;12.02;7.03;;;;;;;21.59;46.35;101017.78;5051404;28;20060;-69
2022/06/23 02:09:49;;;;;;;11.68;6.75;;;;;;;21.59;46.60;101025.97;5051515;28;20303;-69
2022/06/23 02:12:22;;;;;;;9.02;6.47;;;;;;;21.60;46.55;101026.81;5050730;28;20115;-69
2022/06/23 02:15:06;;;;;;;11.40;6.97;;;;;;;21.61;46.66;101034.00;5048592;28;20118;-68
2022/06/23 02:17:39;;;;;;;10.95;6.78;;;;;;;21.62;46.29;101024.78;5050042;28;20041;-68
2022/06/23 02:20:27;;;;;;;9.25;6.40;;;;;;;21.56;46.51;101029.06;5050078;28;20060;-68
2022/06/23 02:23:44;;;;;;;10.98;6.15;;;;;;;21.49;46.55;101028.88;5051117;28;20064;-67
2022/06/23 02:26:34;;;;;;;;;;;;;;;21.47;46.04;101035.53;5050522;28;20068;-67
2022/06/23 02:29:21;;;;;;;11.23;6.50;;;;;;;21.48;46.25;101034.53;5047707;28;20220;-67
2022/06/23 02:32:43;;;;;;;11.30;6.10;;;;;;;21.41;46.52;101039.84;5018274;28;20112;-68
2022/06/23 02:35:31;;;;;;;9.98;7.00;;;;;;;21.37;46.35;101030.28;5031223;28;20167;-68
2022/06/23 02:38:01;;;;;;;11.63;6.93;;;;;;;21.34;46.52;101029.78;5031271;28;20038;-67
2022/06/23 02:40:37;;;;;;;7.80;6.53;;;;;;;21.31;46.27;101027.41;5029817;28;20041;-68
2022/06/23 02:43:10;;;;;;;7.78;6.20;;;;;;;21.29;46.77;101029.44;5031001;28;20034;-68
2022/06/23 02:45:45;;;;;;;9.90;6.63;;;;;;;21.27;46.48;101026.03;5031161;28;20053;-68
2022/06/23 02:48:30;;;;;;;12.40;6.40;;;;;;;21.25;46.51;101026.22;5030678;28;20495;-68
2022/06/23 02:51:13;;;;;;;10.15;6.68;;;;;;;21.22;46.26;101015.59;5029821;28;20045;-68
2022/06/23 02:53:58;;;;;;;10.23;6.32;;;;;;;21.21;46.79;101013.91;5062973;28;20133;-67
2022/06/23 02:56:40;;;;;;;7.75;6.00;;;;;;;21.21;46.46;101012.03;5031078;28;20042;-67
2022/06/23 02:59:36;;;;;;;8.60;6.10;;;;;;;21.19;46.42;101019.53;5031017;28;20053;-67
2022/06/23 03:02:28;;;;;;;10.70;6.43;;;;;;;21.20;46.63;101017.66;5031344;28;20042;-68
2022/06/23 03:05:36;;;;;;;7.90;6.47;;;;;;;21.17;46.64;101018.00;5027573;28;20045;-69
2022/06/23 03:08:12;;;;;;;8.70;6.18;;;;;;;21.17;46.38;101007.94;5008969;28;20049;-68
2022/06/23 03:10:44;;;;;;;7.72;5.65;;;;;;;21.17;46.26;101015.28;5026241;28;20064;-69
2022/06/23 03:13:20;;;;;;;9.13;6.50;;;;;;;21.16;46.43;101010.84;5030317;28;20060;-68
2022/06/23 03:15:51;;;;;;;9.73;6.18;;;;;;;21.15;46.43;101011.88;5030974;28;20115;-68
2022/06/23 03:18:30;;;;;;;8.13;6.57;;;;;;;21.15;46.43;100998.22;5030732;28;20049;-67
2022/06/23 03:20:57;;;;;;;14.43;6.60;;;;;;;21.11;46.87;100992.25;5011146;28;20053;-68
2022/06/23 03:24:11;;;;;;;8.55;5.90;;;;;;;21.06;46.89;100994.63;5013605;28;20049;-67
2022/06/23 03:26:44;;;;;;;8.90;5.85;;;;;;;21.08;46.53;100995.31;5012278;28;20056;-67
2022/06/23 03:29:15;;;;;;;8.63;6.90;;;;;;;21.07;46.91;100996.34;5014382;28;20123;-67
2022/06/23 03:31:42;;;;;;;8.38;5.85;;;;;;;21.05;46.87;100994.81;5015113;28;20038;-67
2022/06/23 03:34:22;;;;;;;7.90;5.97;;;;;;;21.03;46.56;100999.59;5015770;28;20072;-67
2022/06/23 03:37:03;;;;;;;9.38;6.40;;;;;;;21.00;46.63;101000.78;5031914;28;20128;-67
2022/06/23 03:42:50;;;;;;;10.75;6.75;;;;;;;20.94;47.06;100993.28;5034397;28;20040;-67
2022/06/23 03:45:38;;;;;;;8.15;5.80;;;;;;;20.89;46.98;100988.34;5034270;28;20046;-67
2022/06/23 03:48:13;;;;;;;9.13;6.88;;;;;;;20.86;46.90;100994.16;5034128;28;20518;-67
2022/06/23 03:50:50;;;;;;;9.55;6.50;;;;;;;20.83;46.99;101002.69;5034147;28;20034;-67
2022/06/23 03:53:24;;;;;;;10.13;6.80;;;;;;;20.87;46.70;100995.88;5033670;28;20111;-67
2022/06/23 03:56:06;;;;;;;11.68;6.32;;;;;;;20.87;46.71;100992.28;5033964;28;20029;-67
2022/06/23 03:58:54;;;;;;;9.95;6.18;;;;;;;20.87;46.91;100993.13;5033824;28;20045;-67
2022/06/23 04:01:45;;;;;;;8.70;6.20;;;;;;;20.88;46.79;100991.25;5033988;28;20033;-67
2022/06/23 04:04:16;;;;;;;12.27;7.55;;;;;;;20.90;46.94;101000.97;5023231;28;20042;-67
2022/06/23 04:06:48;;;;;;;8.40;6.32;;;;;;;20.89;46.81;100998.41;5033687;28;20053;-68
2022/06/23 04:09:36;;;;;;;9.57;6.47;;;;;;;20.87;47.29;100995.88;5034524;28;20041;-67
2022/06/23 04:12:19;;;;;;;10.70;7.07;;;;;;;20.89;46.77;100999.28;5033608;28;20047;-67
2022/06/23 04:14:57;;;;;;;10.18;6.40;;;;;;;20.90;47.07;101013.78;5033489;28;20053;-67
2022/06/23 04:17:38;;;;;;;10.35;6.47;;;;;;;20.92;46.98;101019.91;5033576;28;20099;-68
2022/06/23 04:20:14;;;;;;;8.88;6.40;;;;;;;20.93;46.88;101011.56;5033503;28;20040;-67
2022/06/23 04:23:01;;;;;;;10.55;6.40;;;;;;;20.93;47.04;100999.78;5033410;28;20041;-68
2022/06/23 04:25:45;;;;;;;8.38;6.10;;;;;;;20.91;46.76;100997.22;5034217;28;20099;-67
2022/06/23 04:28:25;;;;;;;11.13;6.47;;;;;;;20.90;46.82;101011.03;5033311;28;20068;-67
2022/06/23 04:30:55;;;;;;;10.88;6.47;;;;;;;20.91;46.67;101013.59;5033369;28;20037;-67
2022/06/23 04:33:28;;;;;;;11.25;7.47;;;;;;;20.94;46.81;101007.81;5032804;28;20419;-67
2022/06/23 04:35:58;;;;;;;9.73;6.55;;;;;;;20.95;47.21;101011.38;5033350;28;20053;-68
2022/06/23 04:38:48;;;;;;;9.60;6.50;;;;;;;20.96;47.04;101013.09;5033538;28;20088;-67
2022/06/23 04:41:23;;;;;;;10.93;6.43;;;;;;;20.98;46.94;101002.84;5034344;28;20041;-67
2022/06/23 04:44:06;;;;;;;9.15;6.35;;;;;;;20.98;47.15;101012.91;5033277;28;20037;-67
2022/06/23 04:46:38;;;;;;;9.07;5.68;;;;;;;20.99;47.12;101010.00;5033071;28;20549;-67
2022/06/23 04:49:25;;;;;;;9.73;6.15;;;;;;;21.01;46.84;101009.84;5033095;28;20469;-67
2022/06/23 04:52:28;;;;;;;11.40;7.03;;;;;;;21.03;46.98;101014.09;5033120;28;20046;-67
2022/06/23 04:55:09;;;;;;;9.60;6.50;;;;;;;21.07;47.31;101000.94;5033711;28;20044;-66
2022/06/23 04:57:51;;;;;;;11.68;6.53;;;;;;;21.09;47.07;101002.47;5037391;28;20037;-68
2022/06/23 05:00:42;;;;;;;8.43;6.05;;;;;;;21.11;47.20;101014.09;5053387;28;20467;-67
2022/06/23 05:03:33;;;;;;;9.90;5.55;;;;;;;21.14;46.99;101012.88;5052950;28;20127;-67
2022/06/23 05:06:28;;;;;;;9.65;5.78;;;;;;;21.13;47.02;101008.44;5052811;28;20041;-67
2022/06/23 05:09:01;;;;;;;11.23;6.50;;;;;;;21.15;46.75;101001.78;5051979;28;20056;-67
2022/06/23 05:11:43;;;;;;;10.40;5.70;;;;;;;21.18;46.83;101008.78;5052535;28;20044;-67
2022/06/23 05:14:26;;;;;;;7.20;5.80;;;;;;;21.19;47.00;101011.34;5050742;28;20418;-68
2022/06/23 05:17:01;;;;;;;8.40;5.82;;;;;;;21.23;46.83;101011.88;5050881;28;20041;-67
2022/06/23 05:19:35;;;;;;;8.77;5.70;;;;;;;21.26;46.81;101003.34;5032553;28;20076;-67
2022/06/23 05:22:36;;;;;;;9.48;5.65;;;;;;;21.31;47.17;101002.81;5032265;28;20064;-68
2022/06/23 05:25:15;;;;;;;7.90;5.93;;;;;;;21.37;46.73;101016.63;5032465;28;20037;-67
2022/06/23 05:27:46;;;;;;;7.88;5.50;;;;;;;21.40;47.08;101019.00;5032492;28;20029;-67
2022/06/23 05:30:30;;;;;;;7.38;5.68;;;;;;;21.47;46.86;101017.28;5032455;28;20072;-67
2022/06/23 05:33:32;;;;;;;7.57;5.55;;;;;;;21.52;47.19;101008.56;5031692;28;20034;-67
2022/06/23 05:36:13;;;;;;;7.78;5.90;;;;;;;21.59;47.02;101011.47;5028867;28;20037;-67
2022/06/23 05:38:48;;;;;;;9.35;5.60;;;;;;;21.64;47.24;101003.59;5032026;28;20037;-68
2022/06/23 05:41:15;;;;;;;;;;;;;;;21.68;47.01;101003.06;5033428;28;20134;-67
2022/06/23 05:43:42;;;;;;;8.30;6.18;;;;;;;21.78;46.82;101009.16;5031685;28;19921;-66
2022/06/23 05:46:18;;;;;;;9.18;5.85;;;;;;;21.83;46.97;101006.75;5030685;28;20042;-67
2022/06/23 05:48:55;;;;;;;11.60;6.63;;;;;;;21.87;47.17;101007.22;5050284;28;20045;-67
2022/06/23 05:51:33;;;;;;;8.40;5.75;;;;;;;21.94;46.87;101001.91;5031740;28;20038;-66
2022/06/23 05:54:23;;;;;;;8.30;6.00;;;;;;;22.02;47.01;101010.91;5028894;28;20044;-65
2022/06/23 05:57:14;;;;;;;6.05;5.38;;;;;;;22.15;47.06;101005.72;5030749;28;20120;-65
2022/06/23 06:00:00;;;;;;;10.93;5.75;;;;;;;22.29;46.60;101004.09;5028735;28;20132;-65
2022/06/23 06:02:45;;;;;;;5.25;4.75;;;;;;;22.47;46.64;101006.56;5029184;28;20037;-65
2022/06/23 06:05:29;;;;;;;6.75;5.00;;;;;;;22.67;46.30;101010.53;5031088;28;20056;-65
2022/06/23 06:07:56;;;;;;;8.30;5.05;;;;;;;22.86;45.92;101006.44;5031838;28;20056;-66
2022/06/23 06:10:26;;;;;;;7.35;4.95;;;;;;;23.01;45.67;101003.75;5031839;28;20041;-67
2022/06/23 06:13:23;;;;;;;8.50;4.82;;;;;;;23.15;45.53;101005.69;5031455;28;20038;-67
2022/06/23 06:15:53;;;;;;;6.68;5.13;;;;;;;23.31;45.18;101005.50;5031322;28;20053;-67
2022/06/23 06:18:37;;;;;;;8.23;5.13;;;;;;;23.42;45.41;101001.44;5031666;28;20145;-67
2022/06/23 06:21:08;;;;;;;6.60;4.70;;;;;;;23.57;45.09;101012.44;5032679;28;20033;-66
2022/06/23 06:24:03;;;;;;;7.85;5.18;;;;;;;23.71;44.80;101003.34;5032070;28;20067;-67
2022/06/23 06:26:39;;;;;;;7.20;4.53;;;;;;;23.93;44.50;101010.63;5031611;28;20045;-67
2022/06/23 06:29:14;;;;;;;9.45;5.00;;;;;;;24.09;44.21;101007.66;5031659;28;20041;-67
2022/06/23 06:31:45;;;;;;;7.90;4.68;;;;;;;24.25;43.98;101000.22;5032297;28;20116;-67
2022/06/23 06:34:26;;;;;;;7.80;4.75;;;;;;;24.39;44.03;100994.72;5031358;28;20460;-67
2022/06/23 06:36:53;;;;;;;6.28;4.20;;;;;;;24.53;43.64;100994.88;5032703;28;20080;-67
2022/06/23 06:39:29;;;;;;;11.20;5.00;;;;;;;24.71;43.67;101004.34;5042248;28;20041;-65
2022/06/23 06:42:07;;;;;;;7.07;4.60;;;;;;;24.93;43.45;100998.81;5050934;28;20045;-67
2022/06/23 06:44:40;;;;;;;6.22;4.18;;;;;;;25.10;43.57;101000.25;5050635;28;20051;-66
2022/06/23 06:47:14;;;;;;;8.70;4.57;;;;;;;25.29;42.91;101007.81;5051038;28;20116;-65
2022/06/23 06:49:41;;;;;;;6.40;3.88;;;;;;;25.51;42.59;101002.25;5050874;28;20072;-65
2022/06/23 06:52:08;;;;;;;7.03;4.03;;;;;;;25.71;42.34;101005.13;5050884;28;20041;-66
2022/06/23 06:54:42;;;;;;;7.25;3.80;;;;;;;25.93;42.32;101002.06;5049175;28;20045;-66
2022/06/23 06:57:39;;;;;;;7.07;4.07;;;;;;;26.18;41.88;100999.63;5051170;28;20061;-65
2022/06/23 07:00:22;;;;;;;5.18;3.30;;;;;;;26.43;41.53;101005.44;5055017;28;20051;-66
2022/06/23 07:02:58;;;;;;;5.88;3.83;;;;;;;26.60;41.19;101001.22;5054169;28;20655;-65
2022/06/23 07:05:32;;;;;;;6.65;4.18;;;;;;;26.77;40.99;100996.19;5054901;28;20040;-65
2022/06/23 07:08:10;;;;;;;7.05;4.30;;;;;;;26.94;40.63;100996.59;5054728;28;20037;-65
2022/06/23 07:10:46;;;;;;;5.22;4.07;;;;;;;27.07;40.43;100993.88;5038848;28;20077;-66
2022/06/23 07:13:21;;;;;;;7.97;4.78;;;;;;;27.15;40.36;100996.41;5034784;28;20045;-66
2022/06/23 07:15:56;;;;;;;7.63;4.20;;;;;;;27.25;40.09;100995.13;5034741;28;20095;-66
2022/06/23 07:18:33;;;;;;;6.63;3.88;;;;;;;27.37;39.96;100998.91;5034470;28;20072;-66
2022/06/23 07:21:02;;;;;;;6.88;4.35;;;;;;;27.53;39.91;101004.00;5035765;28;20069;-66
2022/06/23 07:23:39;;;;;;;6.60;3.55;;;;;;;27.74;39.90;101005.66;5034341;28;20049;-66
2022/06/23 07:26:30;;;;;;;7.20;4.30;;;;;;;27.96;39.72;101008.97;5035609;28;20045;-66
2022/06/23 07:29:04;;;;;;;9.20;4.35;;;;;;;28.14;39.10;100998.03;5034311;28;20069;-66
2022/06/23 07:31:59;;;;;;;6.65;3.97;;;;;;;28.26;38.97;100995.50;5034448;28;20037;-66
2022/06/23 07:34:30;;;;;;;5.60;3.80;;;;;;;28.38;39.02;101002.84;5034424;28;20055;-65
2022/06/23 07:37:04;;;;;;;8.85;4.28;;;;;;;28.49;39.07;101004.06;5034316;28;20538;-66
2022/06/23 07:39:37;;;;;;;5.05;3.78;;;;;;;28.65;38.62;101006.28;5034292;28;20037;-66
2022/06/23 07:42:08;;;;;;;4.85;3.42;;;;;;;28.85;38.66;101003.38;5034990;28;20241;-66
2022/06/23 07:44:39;;;;;;;7.30;3.75;;;;;;;29.03;38.61;100995.16;5034191;28;20148;-66
2022/06/23 07:47:06;;;;;;;8.07;3.97;;;;;;;29.18;38.25;100996.75;5034227;28;20188;-65
2022/06/23 07:49:33;;;;;;;10.80;4.90;;;;;;;29.25;38.11;100994.75;5033847;28;20049;-66
2022/06/23 07:52:01;;;;;;;7.35;4.95;;;;;;;29.35;37.78;100995.06;5033963;28;20252;-66
2022/06/23 07:54:35;;;;;;;11.27;4.75;;;;;;;29.45;37.77;100998.19;5034225;28;20072;-66
2022/06/23 07:57:02;;;;;;;5.68;4.45;;;;;;;29.55;37.61;100995.72;5033912;28;20376;-67
2022/06/23 07:59:38;;;;;;;12.40;5.30;;;;;;;29.69;37.50;100997.28;5034953;28;20053;-66
2022/06/23 08:02:41;;;;;;;9.95;5.22;;;;;;;29.83;37.44;100991.59;5033731;28;20072;-66
2022/06/23 08:05:17;;;;;;;7.80;4.65;;;;;;;29.98;37.43;100989.28;5021668;28;20059;-66
2022/06/23 08:07:44;;;;;;;10.68;5.50;;;;;;;30.13;37.34;100986.97;5033782;28;20041;-66
2022/06/23 08:10:19;;;;;;;11.38;5.40;;;;;;;30.27;37.16;100991.22;5032543;28;20041;-67
2022/06/23 08:12:58;;;;;;;8.57;5.15;;;;;;;30.39;36.73;100980.19;5033668;28;20064;-67
2022/06/23 08:18:42;;;;;;;8.98;5.72;;;;;;;30.71;36.43;100985.50;5053510;28;20056;-67
2022/06/23 08:21:15;;;;;;;7.78;4.90;;;;;;;30.82;36.33;100971.66;5042443;28;20112;-67
2022/06/23 08:24:07;;;;;;;8.70;5.53;;;;;;;30.94;36.18;100971.66;5049377;28;20049;-66
2022/06/23 08:26:37;;;;;;;7.25;4.80;;;;;;;31.08;36.05;100973.13;5053386;28;20128;-66
2022/06/23 08:29:10;;;;;;;8.20;5.28;;;;;;;31.20;36.02;100974.00;5052508;28;20048;-66
2022/06/23 08:31:37;;;;;;;10.02;5.53;;;;;;;31.36;35.96;100968.81;5053109;28;20040;-66
2022/06/23 08:34:24;;;;;;;8.38;5.55;;;;;;;31.50;35.93;100973.03;5053153;28;20049;-66
2022/06/23 08:36:57;;;;;;;7.97;4.88;;;;;;;31.65;35.71;100970.59;5053208;28;20033;-66
2022/06/23 08:40:01;;;;;;;9.82;5.20;;;;;;;31.80;35.92;100975.66;5053045;28;20045;-66
2022/06/23 08:42:57;;;;;;;8.65;5.78;;;;;;;31.89;35.38;100974.16;5031177;28;20094;-66
2022/06/23 08:45:24;;;;;;;10.93;5.97;;;;;;;32.00;35.49;100978.88;5049261;28;20041;-66
2022/06/23 08:48:04;;;;;;;9.65;5.80;;;;;;;32.08;35.44;100977.63;5052981;28;20040;-67
2022/06/23 08:50:51;;;;;;;7.25;5.53;;;;;;;32.15;35.20;100979.16;5052884;28;20048;-66
2022/06/23 08:53:39;;;;;;;12.68;5.82;;;;;;;32.21;34.99;100975.41;5053254;28;20041;-66
2022/06/23 08:56:11;;;;;;;12.13;5.93;;;;;;;32.27;35.13;100981.94;5052762;28;20036;-66
2022/06/23 08:58:46;;;;;;;9.90;5.40;;;;;;;32.40;35.19;100975.22;5052698;28;20530;-66
2022/06/23 09:01:20;;;;;;;9.38;5.22;;;;;;;32.50;35.23;100975.41;5052773;28;20041;-65
2022/06/23 09:03:58;;;;;;;10.25;5.80;;;;;;;32.60;34.98;100971.94;5040463;28;20480;-66
2022/06/23 09:06:54;;;;;;;7.03;4.97;;;;;;;32.67;34.78;100975.41;5043752;28;20410;-66
2022/06/23 09:09:32;;;;;;;10.05;5.20;;;;;;;32.83;34.80;100964.34;5024588;28;20075;-65
2022/06/23 09:11:58;;;;;;;11.80;5.78;;;;;;;32.98;34.77;100965.69;5032522;28;20096;-66
2022/06/23 09:14:51;;;;;;;8.07;5.35;;;;;;;33.12;34.35;100964.25;5032726;28;20068;-67
2022/06/23 09:17:27;;;;;;;7.75;5.68;;;;;;;33.24;34.30;100964.97;5024141;28;20045;-66
2022/06/23 09:20:21;;;;;;;9.70;5.70;;;;;;;33.31;34.26;100954.53;5032487;28;20378;-66
2022/06/23 09:23:05;;;;;;;7.18;4.93;;;;;;;33.35;33.92;100955.69;5032378;28;20041;-67
2022/06/23 09:25:47;;;;;;;11.18;5.60;;;;;;;33.45;33.81;100949.47;5032425;28;20114;-67
2022/06/23 09:28:18;;;;;;;7.28;4.93;;;;;;;33.57;33.94;100946.56;5047289;28;20037;-67
2022/06/23 09:31:02;;;;;;;11.20;6.00;;;;;;;33.64;33.54;100939.69;5052290;28;20037;-66
2022/06/23 09:33:47;;;;;;;10.82;5.05;;;;;;;33.73;34.03;100945.63;5012221;28;20042;-66
2022/06/23 09:36:35;;;;;;;7.82;5.00;;;;;;;33.82;33.90;100938.53;5013239;28;20044;-66
2022/06/23 09:39:23;;;;;;;10.43;4.32;;;;;;;33.99;34.12;100944.88;5012073;28;20077;-67
2022/06/23 09:42:09;;;;;;;8.02;4.20;;;;;;;34.17;34.00;100940.03;5032044;28;20034;-67
2022/06/23 09:44:58;;;;;;;7.68;4.55;;;;;;;34.34;33.95;100929.66;5031872;28;20061;-66
2022/06/23 09:47:52;;;;;;;11.18;4.25;;;;;;;34.50;33.97;100923.13;5032991;28;20084;-67
2022/06/23 09:50:52;;;;;;;7.97;3.65;;;;;;;34.63;34.28;100931.03;5032011;28;20462;-66
2022/06/23 09:53:42;;;;;;;10.73;3.80;;;;;;;34.77;33.77;100925.00;5031608;28;20546;-67
2022/06/23 09:56:41;;;;;;;6.05;3.17;;;;;;;34.84;33.14;100922.84;5031805;28;20046;-66
2022/06/23 09:59:37;;;;;;;7.68;3.58;;;;;;;34.84;32.65;100920.91;5040898;28;20140;-66
2022/06/23 10:02:29;;;;;;;7.90;3.15;;;;;;;34.87;32.96;100919.53;5051322;28;20090;-67
2022/06/23 10:05:30;;;;;;;7.18;3.33;;;;;;;34.92;33.04;100914.81;5051683;28;20045;-68
2022/06/23 10:08:02;;;;;;;9.38;3.85;;;;;;;35.00;33.09;100911.56;5050807;28;20047;-67
2022/06/23 10:10:59;;;;;;;7.32;2.95;;;;;;;35.04;33.23;100904.31;5051522;28;20037;-67
2022/06/23 10:13:59;;;;;;;8.43;2.60;;;;;;;35.13;33.10;100914.97;5051283;28;20045;-67
2022/06/23 10:16:40;;;;;;;8.38;2.92;;;;;;;35.16;32.63;100912.50;5044835;28;20044;-67
2022/06/23 10:19:25;;;;;;;10.15;3.25;;;;;;;35.21;32.48;100900.50;5031134;28;20128;-66
2022/06/23 10:22:35;;;;;;;11.98;8.05;;;;;;;35.19;32.51;100911.94;5043156;28;20037;-65
2022/06/23 10:25:07;;;;;;;8.27;4.18;;;;;;;35.31;32.56;100907.00;5011832;28;20069;-64
2022/06/23 10:28:38;;;;;;;7.15;3.05;;;;;;;35.41;32.69;100913.78;5011391;28;20125;-64
2022/06/23 10:31:33;;;;;;;7.55;2.90;;;;;;;35.56;32.67;100909.09;5007161;28;20077;-65
2022/06/23 10:34:21;;;;;;;8.05;2.90;;;;;;;35.64;32.16;100902.13;5009880;28;20049;-64
2022/06/23 10:37:03;;;;;;;7.75;3.25;;;;;;;35.62;32.09;100895.97;5012318;28;20149;-65
2022/06/23 10:39:53;;;;;;;6.05;2.58;;;;;;;35.60;31.90;100893.44;5011519;28;20096;-64
2022/06/23 10:43:00;;;;;;;5.03;2.58;;;;;;;35.69;31.88;100890.16;5011457;28;20030;-65
2022/06/23 10:45:35;;;;;;;7.55;2.50;;;;;;;35.80;32.05;100887.13;5010057;28;20081;-64
2022/06/23 10:48:02;;;;;;;8.75;3.05;;;;;;;35.89;31.91;100887.44;5011567;28;20065;-64
2022/06/23 10:50:52;;;;;;;7.88;2.70;;;;;;;36.00;32.08;100891.94;5011310;28;20672;-64
2022/06/23 10:53:43;;;;;;;7.85;3.15;;;;;;;36.05;32.24;100891.13;5011318;28;20100;-65
2022/06/23 10:56:48;;;;;;;9.05;3.83;;;;;;;36.13;31.84;100890.56;5034151;28;20057;-64
2022/06/23 10:59:36;;;;;;;11.73;3.55;;;;;;;36.27;31.82;100878.56;5050625;28;20048;-64
2022/06/23 11:02:25;;;;;;;8.57;3.63;;;;;;;36.37;31.57;100869.34;5050676;28;20638;-64
2022/06/23 11:05:07;;;;;;;10.63;3.38;;;;;;;36.55;31.79;100874.41;5050903;28;20399;-64
2022/06/23 11:07:52;;;;;;;7.55;3.00;;;;;;;36.67;31.54;100884.47;5049363;28;20178;-64
2022/06/23 11:10:39;;;;;;;7.88;3.13;;;;;;;36.77;31.40;100881.69;5028790;28;20075;-64
2022/06/23 11:13:18;;;;;;;6.47;2.95;;;;;;;36.85;31.31;100876.34;5029755;28;20046;-64
2022/06/23 11:15:55;;;;;;;9.68;4.40;;;;;;;36.91;30.68;100874.38;5030385;28;20037;-65
2022/06/23 11:18:59;;;;;;;10.30;3.70;;;;;;;36.93;30.76;100869.34;5052986;28;20128;-64
2022/06/23 11:21:47;;;;;;;4.93;2.40;;;;;;;37.01;30.39;100876.31;5029396;28;20045;-64
2022/06/23 11:24:46;;;;;;;10.07;2.88;;;;;;;37.02;30.08;100878.84;5031974;28;20045;-64
2022/06/23 11:27:26;;;;;;;7.75;2.40;;;;;;;37.12;30.11;100876.00;5027843;28;20033;-64
2022/06/23 11:30:04;;;;;;;6.30;2.50;;;;;;;37.15;30.00;100880.19;5027429;28;20037;-65
2022/06/23 11:33:04;;;;;;;11.15;3.00;;;;;;;37.16;29.83;100888.34;5031040;28;20041;-64
2022/06/23 11:35:33;;;;;;;6.60;3.05;;;;;;;37.29;29.65;100872.09;5029684;28;20048;-64
2022/06/23 11:38:17;;;;;;;8.70;2.92;;;;;;;37.41;29.60;100872.59;5029874;28;20049;-64
2022/06/23 11:41:05;;;;;;;8.13;3.20;;;;;;;37.45;29.16;100863.31;5028590;28;20036;-64
2022/06/23 11:44:03;;;;;;;8.45;3.00;;;;;;;37.48;29.43;100870.31;5031170;28;20224;-64
2022/06/23 11:46:35;;;;;;;6.78;2.70;;;;;;;37.49;29.27;100866.41;5033418;28;20030;-63
2022/06/23 11:49:39;;;;;;;7.97;3.40;;;;;;;37.51;28.89;100861.34;5033059;28;20071;-64
2022/06/23 11:52:24;;;;;;;8.23;3.30;;;;;;;37.51;28.92;100856.56;5032460;28;20045;-64
2022/06/23 11:55:01;;;;;;;7.38;2.90;;;;;;;37.55;28.93;100859.63;5033380;28;20033;-64
2022/06/23 11:57:40;;;;;;;10.38;2.88;;;;;;;37.59;28.72;100860.75;5033478;28;20060;-64
2022/06/23 12:00:12;;;;;;;6.18;2.55;;;;;;;37.62;28.96;100860.16;5033744;28;20037;-64
2022/06/23 12:03:27;;;;;;;7.55;3.10;;;;;;;37.74;29.14;100863.47;5034539;28;20136;-64
2022/06/23 12:06:20;;;;;;;10.00;3.75;;;;;;;37.75;28.83;100853.94;5044930;28;20033;-64
2022/06/23 12:09:00;;;;;;;6.97;2.97;;;;;;;37.71;28.56;100847.25;5053494;28;20057;-64
2022/06/23 12:11:30;;;;;;;10.07;3.15;;;;;;;37.75;28.78;100845.53;5053227;28;20094;-65
2022/06/23 12:14:02;;;;;;;7.85;2.90;;;;;;;37.82;28.24;100850.81;5053400;28;20045;-64
2022/06/23 12:16:30;;;;;;;8.18;3.00;;;;;;;37.86;28.29;100843.50;5053076;28;20061;-65
2022/06/23 12:19:03;;;;;;;7.75;2.75;;;;;;;37.83;28.32;100839.31;5053290;28;20041;-65
2022/06/23 12:21:42;;;;;;;7.95;2.88;;;;;;;37.92;28.43;100849.94;5052972;28;20078;-64
2022/06/23 12:24:25;;;;;;;6.50;2.90;;;;;;;38.05;28.24;100849.28;5034278;28;20045;-65
2022/06/23 12:27:09;;;;;;;8.68;3.50;;;;;;;38.00;28.11;100847.34;5033336;28;20052;-65
2022/06/23 12:29:48;;;;;;;10.23;3.60;;;;;;;38.09;28.18;100844.78;5033044;28;20045;-65
2022/06/23 12:32:26;;;;;;;9.73;3.38;;;;;;;38.09;28.27;100841.97;5033074;28;20095;-65
2022/06/23 12:34:56;;;;;;;7.07;3.00;;;;;;;38.05;28.13;100844.50;5032925;28;20133;-64